Time;durP1;ratioP1;P1;durP2;ratioP2;P2;SDS_P1;SDS_P2;PMS_P1;PMS_P2;Temp;Humidity;BMP_temperature;BMP_pressure;BME280_temperature;BME280_humidity;BME280_pressure;Samples;Min_cycle;Max_cycle;Signal;HPM_P1;HPM_P2
2023/04/17 06:30:44;;;;;;;30.67;18.88;;;9.50;99.90;;;;;;7123798;23;20037;-76
2023/04/17 06:33:48;;;;;;;29.33;18.42;;;9.50;99.90;;;;;;6061843;29;20056;-76
2023/04/17 06:36:50;;;;;;;28.55;18.20;;;9.60;99.90;;;;;;6057388;29;20048;-76
2023/04/17 06:39:52;;;;;;;28.65;17.40;;;9.60;99.90;;;;;;6077595;29;20049;-76
2023/04/17 06:42:54;;;;;;;26.13;17.55;;;9.60;99.90;;;;;;6080122;29;20414;-76
2023/04/17 06:45:57;;;;;;;28.83;17.95;;;9.60;99.90;;;;;;6080503;29;20410;-77
2023/04/17 06:49:00;;;;;;;26.13;17.42;;;9.50;99.90;;;;;;6080199;29;20057;-76
2023/04/17 06:52:02;;;;;;;29.00;17.45;;;9.40;99.90;;;;;;6080394;29;20494;-76
2023/04/17 06:55:05;;;;;;;29.52;17.50;;;9.40;99.90;;;;;;6079946;29;20211;-76
2023/04/17 06:58:08;;;;;;;27.33;16.92;;;9.50;99.90;;;;;;6080220;29;20498;-76
2023/04/17 07:01:11;;;;;;;27.20;17.37;;;9.60;99.90;;;;;;6080047;29;20052;-76
2023/04/17 07:04:13;;;;;;;;;;;9.50;99.90;;;;;;6080537;29;20805;-76
2023/04/17 07:07:16;;;;;;;28.05;16.85;;;9.50;99.90;;;;;;6079982;29;20365;-76
2023/04/17 07:10:18;;;;;;;24.15;16.02;;;9.40;99.90;;;;;;6080201;29;20052;-76
2023/04/17 07:13:20;;;;;;;27.42;16.10;;;9.40;99.90;;;;;;6080164;29;20483;-76
2023/04/17 07:16:23;;;;;;;25.50;16.08;;;9.40;99.90;;;;;;6079908;29;20052;-76
2023/04/17 07:19:25;;;;;;;27.52;16.67;;;9.40;99.90;;;;;;6079897;29;20495;-76
2023/04/17 07:22:27;;;;;;;23.50;14.75;;;9.40;99.90;;;;;;6072269;29;20079;-76
2023/04/17 07:25:29;;;;;;;27.33;16.48;;;9.50;99.90;;;;;;6079922;29;20509;-76
2023/04/17 07:28:31;;;;;;;28.98;16.40;;;9.50;99.90;;;;;;6079987;29;20055;-76
2023/04/17 07:31:34;;;;;;;25.52;15.25;;;9.40;99.90;;;;;;6079782;29;20064;-76
2023/04/17 07:34:40;;;;;;;25.05;15.65;;;9.50;99.90;;;;;;6079959;29;20045;-76
2023/04/17 07:37:41;;;;;;;25.15;15.45;;;9.50;99.90;;;;;;6079836;29;20053;-76
2023/04/17 07:40:43;;;;;;;24.63;14.43;;;9.50;99.90;;;;;;6079940;29;20505;-76
2023/04/17 07:43:45;;;;;;;24.42;14.93;;;9.60;99.90;;;;;;6079506;29;20051;-76
2023/04/17 07:46:48;;;;;;;23.00;14.07;;;9.50;99.90;;;;;;6079835;29;20049;-76
2023/04/17 07:49:50;;;;;;;24.83;15.90;;;9.50;99.90;;;;;;6079895;29;20052;-76
2023/04/17 07:52:52;;;;;;;24.38;15.35;;;9.40;99.90;;;;;;6080026;29;20056;-76
2023/04/17 07:55:54;;;;;;;20.75;13.57;;;9.50;99.90;;;;;;6079439;29;20055;-76
2023/04/17 07:58:57;;;;;;;21.58;13.18;;;9.60;99.90;;;;;;6079883;29;20086;-76
2023/04/17 08:02:00;;;;;;;21.88;13.88;;;9.70;99.90;;;;;;6079661;29;20048;-76
2023/04/17 08:05:04;;;;;;;22.00;13.23;;;9.70;99.90;;;;;;6078387;29;20123;-76
2023/04/17 08:08:06;;;;;;;20.88;13.40;;;9.70;99.90;;;;;;6083355;29;20064;-76
2023/04/17 08:11:08;;;;;;;21.75;13.07;;;9.80;99.90;;;;;;6083577;29;20060;-76
2023/04/17 08:14:10;;;;;;;20.60;13.65;;;9.80;99.90;;;;;;6083882;29;20406;-76
2023/04/17 08:17:14;;;;;;;22.83;13.45;;;9.80;99.90;;;;;;6083961;29;20056;-76
2023/04/17 08:20:17;;;;;;;23.27;13.30;;;9.80;99.90;;;;;;6083620;29;20471;-76
2023/04/17 08:23:18;;;;;;;19.20;12.95;;;9.90;99.90;;;;;;6083214;29;20203;-76
2023/04/17 08:26:22;;;;;;;20.33;12.93;;;9.80;99.90;;;;;;6083547;29;20049;-77
2023/04/17 08:29:24;;;;;;;23.83;14.27;;;9.70;99.90;;;;;;6083447;29;20056;-76
2023/04/17 08:32:27;;;;;;;21.92;12.95;;;9.80;99.90;;;;;;6083439;29;20139;-77
2023/04/17 08:35:29;;;;;;;18.00;12.00;;;9.70;99.90;;;;;;6083063;29;20049;-76
2023/04/17 08:38:31;;;;;;;19.90;13.00;;;9.70;99.90;;;;;;6083132;29;20557;-76
2023/04/17 08:41:41;;;;;;;16.92;11.57;;;9.80;99.90;;;;;;6083224;29;20055;-76
2023/04/17 08:44:42;;;;;;;16.00;11.43;;;9.90;99.90;;;;;;6083434;29;20052;-76
2023/04/17 08:47:46;;;;;;;22.40;12.93;;;10.00;99.90;;;;;;6083121;29;20067;-76
2023/04/17 08:50:51;;;;;;;20.10;12.00;;;10.10;99.90;;;;;;6083342;29;20063;-75
2023/04/17 08:53:53;;;;;;;20.17;12.10;;;10.20;99.90;;;;;;6084619;29;20053;-76
2023/04/17 08:56:55;;;;;;;17.98;12.00;;;10.20;99.90;;;;;;6086200;29;20172;-76
2023/04/17 08:59:57;;;;;;;19.00;11.70;;;10.20;99.90;;;;;;6082757;29;20048;-75
2023/04/17 09:03:03;;;;;;;20.20;11.77;;;10.40;99.90;;;;;;6082354;29;20041;-75
2023/04/17 09:06:06;;;;;;;18.13;11.00;;;10.30;99.90;;;;;;6082763;29;20185;-76
2023/04/17 09:09:08;;;;;;;17.08;10.93;;;10.40;99.90;;;;;;6082598;29;20064;-75
2023/04/17 09:12:10;;;;;;;14.60;9.77;;;10.40;99.90;;;;;;6082482;29;20049;-75
2023/04/17 09:15:16;;;;;;;14.73;9.45;;;10.50;99.90;;;;;;6082226;29;20550;-75
2023/04/17 09:18:24;;;;;;;13.48;9.18;;;10.50;99.90;;;;;;6081844;29;20049;-75
2023/04/17 09:21:28;;;;;;;12.98;8.90;;;10.30;99.90;;;;;;6081997;29;20052;-74
2023/04/17 09:24:33;;;;;;;;;;;10.30;99.90;;;;;;6060794;29;20053;-75
2023/04/17 09:27:35;;;;;;;18.08;11.60;;;10.20;99.90;;;;;;6063491;29;19923;-75
2023/04/17 09:30:37;;;;;;;17.85;10.68;;;10.20;99.90;;;;;;6078797;29;20060;-75
2023/04/17 09:33:56;;;;;;;16.00;10.20;;;10.30;99.90;;;;;;6076215;29;20483;-75
2023/04/17 09:36:58;;;;;;;15.13;8.77;;;10.50;99.90;;;;;;6078486;29;20064;-75
2023/04/17 09:40:06;;;;;;;11.23;7.28;;;10.70;99.90;;;;;;6078527;29;20410;-75
2023/04/17 09:43:10;;;;;;;14.10;8.70;;;10.80;99.90;;;;;;6078523;29;20468;-76
2023/04/17 09:46:13;;;;;;;12.07;7.85;;;11.10;99.90;;;;;;6078444;29;20399;-75
2023/04/17 09:49:23;;;;;;;12.48;8.05;;;11.10;99.90;;;;;;6062583;29;20414;-75
2023/04/17 09:52:26;;;;;;;9.45;6.45;;;11.10;99.90;;;;;;6078501;29;20048;-75
2023/04/17 09:55:29;;;;;;;10.75;6.65;;;11.00;99.90;;;;;;6077929;29;20099;-75
2023/04/17 09:58:30;;;;;;;10.13;6.80;;;10.90;99.90;;;;;;6078379;29;20080;-75
2023/04/17 10:01:34;;;;;;;8.85;6.25;;;10.80;99.90;;;;;;6077923;29;20049;-75
2023/04/17 10:04:40;;;;;;;10.27;6.95;;;10.90;99.90;;;;;;6076509;29;20049;-75
2023/04/17 10:07:42;;;;;;;10.38;6.57;;;11.00;99.90;;;;;;6077994;29;20057;-75
2023/04/17 10:10:45;;;;;;;10.90;6.13;;;11.10;99.90;;;;;;6077604;29;20056;-75
2023/04/17 10:13:55;;;;;;;8.63;5.65;;;11.20;99.90;;;;;;6077882;29;20109;-74
2023/04/17 10:16:57;;;;;;;9.88;6.18;;;11.40;99.90;;;;;;6077242;29;20387;-75
2023/04/17 10:20:38;;;;;;;9.05;5.45;;;11.60;99.90;;;;;;6077403;29;20150;-76
2023/04/17 10:23:39;;;;;;;9.50;5.35;;;11.70;99.90;;;;;;6075158;29;20053;-77
2023/04/17 10:26:41;;;;;;;9.25;5.57;;;11.80;99.90;;;;;;6077547;29;20051;-75
2023/04/17 10:29:53;;;;;;;6.88;4.88;;;11.80;99.90;;;;;;6076867;29;20059;-74
2023/04/17 10:33:21;;;;;;;7.80;4.78;;;11.80;99.90;;;;;;6077088;29;20063;-74
2023/04/17 10:36:51;;;;;;;10.20;6.43;;;11.70;99.90;;;;;;6074603;29;20063;-76
2023/04/17 10:40:00;;;;;;;9.15;5.55;;;12.00;99.90;;;;;;6077331;29;20493;-76
2023/04/17 10:43:12;;;;;;;6.70;4.30;;;12.00;99.90;;;;;;6077608;29;20059;-76
2023/04/17 10:46:15;;;;;;;6.32;4.03;;;11.80;99.90;;;;;;6077307;29;20158;-76
2023/04/17 10:49:16;;;;;;;5.47;3.78;;;11.70;99.90;;;;;;6076926;29;20061;-76
2023/04/17 10:52:41;;;;;;;5.68;3.78;;;11.70;99.90;;;;;;6077149;29;20048;-75
2023/04/17 10:55:50;;;;;;;5.45;3.65;;;11.80;99.90;;;;;;6077239;29;20055;-76
2023/04/17 10:58:59;;;;;;;6.75;4.10;;;12.00;99.90;;;;;;6076971;29;20060;-76
2023/04/17 11:02:03;;;;;;;7.03;4.40;;;12.20;99.90;;;;;;6076947;29;20558;-76
2023/04/17 11:05:07;;;;;;;6.70;4.60;;;11.90;99.90;;;;;;6074751;29;20061;-76
2023/04/17 11:08:11;;;;;;;;;;;11.90;99.90;;;;;;6077354;29;20057;-75
2023/04/17 11:11:13;;;;;;;6.28;4.28;;;11.80;99.90;;;;;;6076799;29;19928;-75
2023/04/17 11:14:16;;;;;;;6.55;4.78;;;11.70;99.90;;;;;;6076417;29;20506;-77
2023/04/17 11:17:21;;;;;;;7.40;4.70;;;11.50;99.90;;;;;;6076898;29;20044;-76
2023/04/17 11:20:25;;;;;;;7.90;4.90;;;11.60;99.90;;;;;;6076800;29;20133;-76
2023/04/17 11:23:33;;;;;;;8.68;5.45;;;11.50;99.90;;;;;;6061329;29;20486;-77
2023/04/17 11:26:42;;;;;;;7.57;5.57;;;11.40;99.90;;;;;;6076081;29;20084;-77
2023/04/17 11:29:45;;;;;;;6.85;5.20;;;11.60;99.90;;;;;;6076404;29;20052;-76
2023/04/17 11:32:47;;;;;;;7.47;5.38;;;11.80;99.90;;;;;;6076168;29;20081;-76
2023/04/17 11:35:49;;;;;;;8.25;5.85;;;12.00;99.90;;;;;;6076805;29;20060;-77
2023/04/17 11:38:52;;;;;;;8.30;5.95;;;12.00;99.90;;;;;;6076066;29;20097;-77
2023/04/17 11:41:55;;;;;;;8.23;6.32;;;12.10;99.90;;;;;;6080286;29;20049;-77
2023/04/17 11:45:04;;;;;;;10.40;6.82;;;12.30;99.90;;;;;;6081315;29;20359;-77
2023/04/17 11:48:09;;;;;;;9.18;6.03;;;12.30;99.90;;;;;;6080780;29;20531;-76
2023/04/17 11:51:12;;;;;;;9.38;6.43;;;12.60;99.90;;;;;;6081032;29;20053;-77
2023/04/17 11:54:25;;;;;;;8.65;6.15;;;12.60;99.90;;;;;;6080721;29;20418;-77
2023/04/17 11:57:27;;;;;;;;;;;12.70;99.90;;;;;;6081148;29;20056;-77
2023/04/17 12:00:30;;;;;;;8.82;6.05;;;13.00;99.90;;;;;;6080939;29;20266;-76
2023/04/17 12:03:34;;;;;;;8.40;6.50;;;13.20;99.90;;;;;;6080396;29;20720;-76
2023/04/17 12:06:37;;;;;;;7.95;5.88;;;13.30;99.90;;;;;;6079574;29;20518;-77
2023/04/17 12:09:40;;;;;;;9.57;5.20;;;13.30;99.90;;;;;;6080961;29;20060;-76
2023/04/17 12:12:44;;;;;;;6.25;4.60;;;13.30;99.90;;;;;;6080163;29;20056;-77
2023/04/17 12:15:46;;;;;;;5.80;4.30;;;13.40;99.90;;;;;;6081023;29;20483;-77
2023/04/17 12:18:48;;;;;;;6.40;4.78;;;13.40;99.90;;;;;;6080344;29;20425;-76
